createdAt,value
2019-02-16T00:01:46.975Z,10.73
2019-02-16T00:06:51.332Z,12.13
2019-02-16T00:11:55.684Z,10.73
2019-02-16T00:17:01.702Z,12.13
2019-02-16T00:22:06.100Z,12.50
2019-02-16T00:27:10.473Z,12.20
2019-02-16T00:32:14.860Z,10.57
2019-02-16T00:37:19.342Z,12.20
2019-02-16T00:42:25.313Z,11.50
2019-02-16T00:47:29.683Z,12.03
2019-02-16T00:52:34.142Z,13.57
2019-02-16T00:57:38.460Z,10.60
2019-02-16T01:02:42.806Z,11.20
2019-02-16T01:07:47.316Z,15.83
2019-02-16T01:12:51.687Z,14.73
2019-02-16T01:17:56.054Z,13.07
2019-02-16T01:23:00.414Z,12.33
2019-02-16T01:28:04.785Z,14.47
2019-02-16T01:33:09.407Z,12.20
2019-02-16T01:38:13.761Z,11.83
2019-02-16T01:43:18.129Z,12.98
2019-02-16T01:48:22.506Z,14.00
2019-02-16T01:53:26.920Z,14.03
2019-02-16T01:58:31.334Z,14.53
2019-02-16T02:03:35.686Z,13.97
2019-02-16T02:08:40.052Z,15.27
2019-02-16T02:13:44.423Z,14.60
2019-02-16T02:18:48.801Z,13.70
2019-02-16T02:23:53.174Z,14.43
2019-02-16T02:28:57.677Z,16.13
2019-02-16T02:34:02.032Z,13.67
2019-02-16T02:39:06.744Z,15.73
2019-02-16T02:44:12.165Z,14.43
2019-02-16T02:49:16.543Z,17.30
2019-02-16T02:54:20.921Z,13.17
2019-02-16T02:59:25.324Z,15.27
2019-02-16T03:04:29.671Z,13.80
2019-02-16T03:09:34.043Z,16.20
2019-02-16T03:14:38.430Z,14.57
2019-02-16T03:19:42.812Z,12.73
2019-02-16T03:24:47.154Z,14.47
2019-02-16T03:29:57.519Z,15.47
2019-02-16T03:35:22.985Z,15.77
2019-02-16T03:40:27.365Z,16.27
2019-02-16T03:45:31.717Z,18.07
2019-02-16T03:50:37.147Z,15.07
2019-02-16T03:55:41.519Z,14.60
2019-02-16T04:00:45.954Z,16.90
2019-02-16T04:05:50.439Z,16.87
2019-02-16T04:10:54.776Z,16.47
2019-02-16T04:15:59.154Z,19.63
2019-02-16T04:21:03.652Z,17.17
2019-02-16T04:26:08.853Z,20.10
2019-02-16T04:31:13.215Z,19.87
2019-02-16T04:36:17.601Z,20.43
2019-02-16T04:41:21.981Z,19.83
2019-02-16T04:46:26.299Z,16.77
2019-02-16T04:51:30.693Z,21.97
2019-02-16T04:56:35.091Z,21.23
2019-02-16T05:01:39.462Z,22.10
2019-02-16T05:06:43.804Z,20.27
2019-02-16T05:11:48.648Z,20.57
2019-02-16T05:16:53.016Z,20.47
2019-02-16T05:21:57.406Z,21.67
2019-02-16T05:27:01.804Z,19.10
2019-02-16T05:32:06.136Z,20.77
2019-02-16T05:37:10.534Z,22.10
2019-02-16T05:42:14.920Z,22.33
2019-02-16T05:47:19.311Z,21.83
2019-02-16T05:52:23.669Z,24.83
2019-02-16T05:57:28.098Z,25.47
2019-02-16T06:02:32.472Z,24.77
2019-02-16T06:07:36.852Z,24.63
2019-02-16T06:12:41.365Z,24.27
2019-02-16T06:17:45.715Z,22.97
2019-02-16T06:22:50.090Z,22.30
2019-02-16T06:27:54.458Z,23.43
2019-02-16T06:32:58.902Z,26.73
2019-02-16T06:38:03.279Z,25.90
2019-02-16T06:43:07.651Z,25.87
2019-02-16T06:48:12.138Z,24.43
2019-02-16T06:53:16.514Z,26.67
2019-02-16T06:58:21.420Z,24.52
2019-02-16T07:03:26.873Z,30.43
2019-02-16T07:08:31.277Z,30.82
2019-02-16T07:13:35.634Z,30.67
2019-02-16T07:18:41.661Z,37.60
2019-02-16T07:23:46.021Z,31.27
2019-02-16T07:28:50.405Z,27.30
2019-02-16T07:33:54.792Z,32.30
2019-02-16T07:38:59.149Z,33.63
2019-02-16T07:44:05.220Z,31.20
2019-02-16T07:49:13.752Z,32.83
2019-02-16T07:54:19.813Z,32.97
2019-02-16T07:59:28.691Z,32.17
2019-02-16T08:04:46.596Z,32.47
2019-02-16T08:10:01.751Z,32.13
2019-02-16T08:15:14.620Z,32.10
2019-02-16T08:20:20.705Z,30.27
2019-02-16T08:25:38.807Z,32.13
2019-02-16T08:30:53.780Z,32.27
2019-02-16T08:36:18.445Z,33.33
2019-02-16T08:41:30.309Z,32.90
2019-02-16T08:46:42.409Z,35.30
2019-02-16T08:51:51.173Z,33.80
2019-02-16T08:56:59.893Z,34.23
2019-02-16T09:02:05.904Z,33.80
2019-02-16T09:07:11.942Z,32.87
2019-02-16T09:12:34.160Z,34.93
2019-02-16T09:17:55.315Z,33.83
2019-02-16T09:23:03.760Z,34.33
2019-02-16T09:28:09.769Z,35.57
2019-02-16T09:33:15.770Z,32.07
2019-02-16T09:38:21.805Z,32.40
2019-02-16T09:43:44.077Z,32.97
2019-02-16T09:48:50.165Z,32.33
2019-02-16T09:54:12.372Z,32.20
2019-02-16T09:59:18.368Z,32.97
2019-02-16T10:04:26.900Z,34.57
2019-02-16T10:09:44.710Z,29.90
2019-02-16T10:14:50.767Z,27.73
2019-02-16T10:20:12.751Z,27.47
2019-02-16T10:25:18.781Z,28.50
2019-02-16T10:30:24.832Z,25.63
2019-02-16T10:35:40.135Z,24.57
2019-02-16T10:40:48.906Z,30.77
2019-02-16T10:46:07.205Z,26.17
2019-02-16T10:51:17.595Z,28.37
2019-02-16T10:56:25.846Z,27.47
2019-02-16T11:01:37.575Z,26.17
2019-02-16T11:06:46.492Z,26.77
2019-02-16T11:12:04.255Z,26.47
2019-02-16T11:17:17.933Z,31.67
2019-02-16T11:22:26.897Z,24.90
2019-02-16T11:27:35.866Z,23.07
2019-02-16T11:32:49.664Z,26.47
2019-02-16T11:38:04.807Z,22.30
2019-02-16T11:43:26.014Z,23.40
2019-02-16T11:48:32.098Z,25.00
2019-02-16T11:53:54.599Z,23.57
2019-02-16T11:59:06.357Z,21.60
2019-02-16T12:04:18.066Z,19.50
2019-02-16T12:09:33.233Z,21.17
2019-02-16T12:14:48.501Z,18.83
2019-02-16T12:19:54.567Z,20.37
2019-02-16T12:25:06.102Z,19.20
2019-02-16T12:30:23.687Z,16.33
2019-02-16T12:35:41.795Z,18.30
2019-02-16T12:40:47.878Z,18.00
2019-02-16T12:46:02.879Z,18.43
2019-02-16T12:51:09.046Z,16.37
2019-02-16T12:56:17.992Z,17.10
2019-02-16T13:01:24.007Z,16.67
2019-02-16T13:06:39.306Z,19.67
2019-02-16T13:11:45.317Z,15.83
2019-02-16T13:16:54.247Z,16.93
2019-02-16T13:22:02.848Z,14.43
2019-02-16T13:27:08.931Z,14.43
2019-02-16T13:32:27.183Z,16.83
2019-02-16T13:37:48.308Z,15.73
2019-02-16T13:43:06.668Z,15.10
2019-02-16T13:48:29.207Z,15.10
2019-02-16T13:53:38.355Z,12.63
2019-02-16T13:58:47.328Z,11.30
2019-02-16T14:04:11.751Z,16.13
2019-02-16T14:09:17.785Z,12.13
2019-02-16T14:14:23.879Z,14.37
2019-02-16T14:19:28.245Z,14.10
2019-02-16T14:24:43.581Z,13.23
2019-02-16T14:29:47.966Z,13.47
2019-02-16T14:34:52.319Z,11.40
2019-02-16T14:39:56.751Z,11.27
2019-02-16T14:45:01.130Z,11.37
2019-02-16T14:50:08.027Z,13.43
2019-02-16T14:55:14.715Z,10.88
2019-02-16T15:00:20.420Z,10.50
2019-02-16T15:05:25.254Z,12.30
2019-02-16T15:10:29.638Z,13.23
2019-02-16T15:15:34.015Z,12.93
2019-02-16T15:20:38.409Z,11.23
2019-02-16T15:25:42.777Z,12.40
2019-02-16T15:30:47.157Z,13.27
2019-02-16T15:35:51.539Z,13.13
2019-02-16T15:40:55.920Z,12.23
2019-02-16T15:46:00.303Z,14.53
2019-02-16T15:51:04.731Z,13.57
2019-02-16T15:56:10.811Z,15.03
2019-02-16T16:01:15.484Z,12.23
2019-02-16T16:06:19.894Z,12.83
2019-02-16T16:11:32.166Z,12.37
2019-02-16T16:16:38.156Z,12.03
2019-02-16T16:21:44.241Z,12.07
2019-02-16T16:27:02.439Z,17.50
2019-02-16T16:32:08.437Z,14.60
2019-02-16T16:37:20.578Z,12.80
2019-02-16T16:42:33.007Z,11.97
2019-02-16T16:47:45.039Z,13.40
2019-02-16T16:53:07.884Z,12.60
2019-02-16T16:58:26.828Z,14.23
2019-02-16T17:03:41.760Z,14.37
2019-02-16T17:08:53.719Z,15.70
2019-02-16T17:14:05.512Z,15.57
2019-02-16T17:19:11.848Z,17.40
2019-02-16T17:24:32.672Z,15.00
2019-02-16T17:29:38.748Z,18.23
2019-02-16T17:34:52.684Z,15.40
2019-02-16T17:40:06.090Z,16.23
2019-02-16T17:45:21.331Z,17.97
2019-02-16T17:50:39.298Z,15.57
2019-02-16T17:55:48.533Z,18.30
2019-02-16T18:00:57.292Z,18.07
2019-02-16T18:06:09.082Z,20.50
2019-02-16T18:11:15.117Z,20.40
2019-02-16T18:16:21.246Z,21.80
2019-02-16T18:21:36.298Z,21.43
2019-02-16T18:26:56.560Z,21.63
2019-02-16T18:32:14.088Z,20.30
2019-02-16T18:37:20.070Z,22.93
2019-02-16T18:42:38.180Z,21.00
2019-02-16T18:47:47.010Z,21.50
2019-02-16T18:52:53.077Z,19.60
2019-02-16T18:57:59.061Z,22.80
2019-02-16T19:03:17.002Z,20.77
2019-02-16T19:08:23.056Z,19.93
2019-02-16T19:13:41.346Z,25.03
2019-02-16T19:18:47.414Z,23.53
2019-02-16T19:23:56.595Z,25.47
2019-02-16T19:29:20.818Z,26.13
2019-02-16T19:34:26.841Z,27.50
2019-02-16T19:39:49.130Z,29.83
2019-02-16T19:44:55.157Z,27.63
2019-02-16T19:55:35.074Z,25.33
2019-02-16T20:00:45.268Z,27.27
2019-02-16T20:05:56.079Z,28.63
2019-02-16T20:11:17.126Z,25.50
2019-02-16T20:16:23.150Z,30.83
2019-02-16T20:21:37.971Z,28.00
2019-02-16T20:27:02.407Z,26.80
2019-02-16T20:32:17.480Z,28.40
2019-02-16T20:37:23.503Z,30.60
2019-02-16T20:42:35.730Z,32.37
2019-02-16T20:47:48.095Z,26.80
2019-02-16T20:53:03.140Z,31.03
2019-02-16T20:58:09.176Z,29.27
2019-02-16T21:03:20.999Z,31.47
2019-02-16T21:08:32.497Z,27.47
2019-02-16T21:13:38.516Z,28.83
2019-02-16T21:18:44.681Z,30.90
2019-02-16T21:24:02.462Z,30.07
2019-02-16T21:29:25.343Z,31.20
2019-02-16T21:34:37.409Z,29.97
2019-02-16T21:39:49.513Z,31.00
2019-02-16T21:45:10.908Z,30.70
2019-02-16T21:50:33.225Z,28.73
2019-02-16T21:55:39.209Z,31.77
2019-02-16T22:01:00.698Z,32.03
2019-02-16T22:06:23.077Z,35.00
2019-02-16T22:11:32.500Z,36.33
2019-02-16T22:16:36.901Z,31.47
2019-02-16T22:21:41.392Z,33.57
2019-02-16T22:26:45.746Z,27.73
2019-02-16T22:31:50.313Z,33.93
2019-02-16T22:36:54.891Z,37.43
2019-02-16T22:41:59.278Z,38.67
2019-02-16T22:47:03.679Z,32.23
2019-02-16T22:52:09.046Z,32.87
2019-02-16T22:57:13.569Z,26.67
2019-02-16T23:02:17.935Z,27.40
2019-02-16T23:07:22.371Z,26.77
2019-02-16T23:12:26.764Z,28.47
2019-02-16T23:17:31.222Z,27.57
2019-02-16T23:22:35.621Z,30.10
2019-02-16T23:27:39.970Z,29.63
2019-02-16T23:32:44.436Z,26.90
2019-02-16T23:37:48.810Z,36.30
2019-02-16T23:42:54.412Z,32.07
2019-02-16T23:47:58.786Z,31.40
2019-02-16T23:53:04.226Z,31.57
2019-02-16T23:58:08.571Z,33.77
